sensor_id;sensor_type;location;lat;lon;timestamp;P1;durP1;ratioP1;P2;durP2;ratioP2
44452;SDS011;30155;52.164;21.236;2023-12-20T00:04:24;20.40;;;13.40;;
44452;SDS011;30155;52.164;21.236;2023-12-20T00:09:16;17.60;;;12.70;;
44452;SDS011;30155;52.164;21.236;2023-12-20T00:14:08;17.20;;;13.20;;
44452;SDS011;30155;52.164;21.236;2023-12-20T00:18:59;16.10;;;11.70;;
44452;SDS011;30155;52.164;21.236;2023-12-20T00:23:51;13.60;;;10.80;;
44452;SDS011;30155;52.164;21.236;2023-12-20T00:28:42;16.20;;;13.00;;
44452;SDS011;30155;52.164;21.236;2023-12-20T00:33:34;15.80;;;11.40;;
44452;SDS011;30155;52.164;21.236;2023-12-20T00:38:25;15.00;;;11.20;;
44452;SDS011;30155;52.164;21.236;2023-12-20T00:43:17;17.30;;;11.50;;
44452;SDS011;30155;52.164;21.236;2023-12-20T00:48:08;13.10;;;10.50;;
44452;SDS011;30155;52.164;21.236;2023-12-20T00:53:01;11.50;;;9.30;;
44452;SDS011;30155;52.164;21.236;2023-12-20T00:57:52;14.50;;;10.40;;
44452;SDS011;30155;52.164;21.236;2023-12-20T01:02:44;13.30;;;9.90;;
44452;SDS011;30155;52.164;21.236;2023-12-20T01:07:37;13.30;;;9.80;;
44452;SDS011;30155;52.164;21.236;2023-12-20T01:12:28;11.20;;;9.80;;
44452;SDS011;30155;52.164;21.236;2023-12-20T01:17:20;13.40;;;9.80;;
44452;SDS011;30155;52.164;21.236;2023-12-20T01:22:11;12.70;;;9.50;;
44452;SDS011;30155;52.164;21.236;2023-12-20T01:27:03;13.20;;;10.40;;
44452;SDS011;30155;52.164;21.236;2023-12-20T01:31:54;11.90;;;8.40;;
44452;SDS011;30155;52.164;21.236;2023-12-20T01:36:46;10.30;;;8.60;;
44452;SDS011;30155;52.164;21.236;2023-12-20T01:41:37;12.30;;;9.30;;
44452;SDS011;30155;52.164;21.236;2023-12-20T01:46:29;12.70;;;8.90;;
44452;SDS011;30155;52.164;21.236;2023-12-20T01:51:27;9.50;;;8.30;;
44452;SDS011;30155;52.164;21.236;2023-12-20T01:56:19;11.10;;;8.30;;
44452;SDS011;30155;52.164;21.236;2023-12-20T02:08:22;8.70;;;7.50;;
44452;SDS011;30155;52.164;21.236;2023-12-20T02:14:12;9.40;;;7.60;;
44452;SDS011;30155;52.164;21.236;2023-12-20T02:19:07;10.20;;;8.20;;
44452;SDS011;30155;52.164;21.236;2023-12-20T02:24:04;9.80;;;8.30;;
44452;SDS011;30155;52.164;21.236;2023-12-20T02:34:16;9.40;;;8.40;;
44452;SDS011;30155;52.164;21.236;2023-12-20T02:44:10;11.40;;;7.50;;
44452;SDS011;30155;52.164;21.236;2023-12-20T02:49:18;12.50;;;8.90;;
44452;SDS011;30155;52.164;21.236;2023-12-20T02:54:10;9.40;;;7.80;;
44452;SDS011;30155;52.164;21.236;2023-12-20T02:59:01;12.10;;;8.10;;
44452;SDS011;30155;52.164;21.236;2023-12-20T03:03:53;11.80;;;7.30;;
44452;SDS011;30155;52.164;21.236;2023-12-20T03:08:45;10.90;;;8.10;;
44452;SDS011;30155;52.164;21.236;2023-12-20T03:13:36;10.10;;;7.40;;
44452;SDS011;30155;52.164;21.236;2023-12-20T03:18:28;9.30;;;6.70;;
44452;SDS011;30155;52.164;21.236;2023-12-20T03:23:19;7.50;;;6.20;;
44452;SDS011;30155;52.164;21.236;2023-12-20T03:28:10;5.60;;;5.10;;
44452;SDS011;30155;52.164;21.236;2023-12-20T03:33:02;7.90;;;5.50;;
44452;SDS011;30155;52.164;21.236;2023-12-20T03:37:54;6.80;;;5.30;;
44452;SDS011;30155;52.164;21.236;2023-12-20T03:42:45;6.50;;;5.80;;
44452;SDS011;30155;52.164;21.236;2023-12-20T03:47:36;5.80;;;5.10;;
44452;SDS011;30155;52.164;21.236;2023-12-20T03:52:28;7.00;;;6.10;;
44452;SDS011;30155;52.164;21.236;2023-12-20T03:57:19;7.00;;;5.60;;
44452;SDS011;30155;52.164;21.236;2023-12-20T04:02:11;6.70;;;4.70;;
44452;SDS011;30155;52.164;21.236;2023-12-20T04:07:02;5.30;;;4.90;;
44452;SDS011;30155;52.164;21.236;2023-12-20T04:11:54;7.70;;;5.80;;
44452;SDS011;30155;52.164;21.236;2023-12-20T04:16:45;6.10;;;5.50;;
44452;SDS011;30155;52.164;21.236;2023-12-20T04:21:38;5.80;;;5.20;;
44452;SDS011;30155;52.164;21.236;2023-12-20T04:26:29;6.20;;;5.10;;
44452;SDS011;30155;52.164;21.236;2023-12-20T04:31:21;5.70;;;5.10;;
44452;SDS011;30155;52.164;21.236;2023-12-20T04:36:24;6.00;;;5.40;;
44452;SDS011;30155;52.164;21.236;2023-12-20T04:41:29;5.40;;;4.70;;
44452;SDS011;30155;52.164;21.236;2023-12-20T04:46:33;4.40;;;3.90;;
44452;SDS011;30155;52.164;21.236;2023-12-20T04:51:28;6.40;;;5.30;;
44452;SDS011;30155;52.164;21.236;2023-12-20T04:56:22;5.10;;;4.60;;
44452;SDS011;30155;52.164;21.236;2023-12-20T05:01:17;5.40;;;4.90;;
44452;SDS011;30155;52.164;21.236;2023-12-20T05:06:10;5.40;;;4.80;;
44452;SDS011;30155;52.164;21.236;2023-12-20T05:11:04;6.80;;;5.80;;
44452;SDS011;30155;52.164;21.236;2023-12-20T05:15:56;6.40;;;5.30;;
44452;SDS011;30155;52.164;21.236;2023-12-20T05:20:50;6.40;;;5.80;;
44452;SDS011;30155;52.164;21.236;2023-12-20T05:25:44;7.10;;;6.00;;
44452;SDS011;30155;52.164;21.236;2023-12-20T05:30:36;7.10;;;5.40;;
44452;SDS011;30155;52.164;21.236;2023-12-20T05:35:27;7.80;;;6.60;;
44452;SDS011;30155;52.164;21.236;2023-12-20T05:40:19;8.70;;;7.40;;
44452;SDS011;30155;52.164;21.236;2023-12-20T05:45:10;8.10;;;6.80;;
44452;SDS011;30155;52.164;21.236;2023-12-20T05:50:02;9.00;;;7.00;;
44452;SDS011;30155;52.164;21.236;2023-12-20T05:54:54;9.10;;;7.40;;
44452;SDS011;30155;52.164;21.236;2023-12-20T05:59:47;9.10;;;7.90;;
44452;SDS011;30155;52.164;21.236;2023-12-20T06:04:41;10.40;;;9.30;;
44452;SDS011;30155;52.164;21.236;2023-12-20T06:09:34;9.30;;;8.40;;
44452;SDS011;30155;52.164;21.236;2023-12-20T06:14:27;9.20;;;7.90;;
44452;SDS011;30155;52.164;21.236;2023-12-20T06:19:18;9.80;;;8.30;;
44452;SDS011;30155;52.164;21.236;2023-12-20T06:24:12;10.90;;;8.20;;
44452;SDS011;30155;52.164;21.236;2023-12-20T06:29:03;10.10;;;8.20;;
44452;SDS011;30155;52.164;21.236;2023-12-20T06:33:54;8.40;;;7.40;;
44452;SDS011;30155;52.164;21.236;2023-12-20T06:38:51;10.10;;;7.60;;
44452;SDS011;30155;52.164;21.236;2023-12-20T06:43:42;9.20;;;7.40;;
44452;SDS011;30155;52.164;21.236;2023-12-20T06:48:41;9.30;;;8.00;;
44452;SDS011;30155;52.164;21.236;2023-12-20T06:53:33;9.80;;;8.20;;
44452;SDS011;30155;52.164;21.236;2023-12-20T06:58:24;8.70;;;7.70;;
44452;SDS011;30155;52.164;21.236;2023-12-20T07:03:16;9.60;;;7.70;;
44452;SDS011;30155;52.164;21.236;2023-12-20T07:08:07;8.40;;;7.50;;
44452;SDS011;30155;52.164;21.236;2023-12-20T07:12:59;8.90;;;8.00;;
44452;SDS011;30155;52.164;21.236;2023-12-20T07:17:50;10.20;;;7.50;;
44452;SDS011;30155;52.164;21.236;2023-12-20T07:22:46;8.20;;;7.20;;
44452;SDS011;30155;52.164;21.236;2023-12-20T07:27:37;8.60;;;7.30;;
44452;SDS011;30155;52.164;21.236;2023-12-20T07:32:30;10.10;;;8.60;;
44452;SDS011;30155;52.164;21.236;2023-12-20T07:37:22;9.80;;;8.70;;
44452;SDS011;30155;52.164;21.236;2023-12-20T07:42:14;10.70;;;8.50;;
44452;SDS011;30155;52.164;21.236;2023-12-20T07:47:06;8.80;;;8.00;;
44452;SDS011;30155;52.164;21.236;2023-12-20T07:52:22;12.50;;;8.90;;
44452;SDS011;30155;52.164;21.236;2023-12-20T08:46:25;7.10;;;6.40;;
44452;SDS011;30155;52.164;21.236;2023-12-20T08:52:20;10.00;;;7.50;;
44452;SDS011;30155;52.164;21.236;2023-12-20T09:04:49;8.10;;;6.00;;
44452;SDS011;30155;52.164;21.236;2023-12-20T09:16:50;6.30;;;5.70;;
44452;SDS011;30155;52.164;21.236;2023-12-20T09:22:30;6.80;;;6.10;;
44452;SDS011;30155;52.164;21.236;2023-12-20T09:27:22;6.80;;;5.90;;
44452;SDS011;30155;52.164;21.236;2023-12-20T09:32:55;7.00;;;6.30;;
44452;SDS011;30155;52.164;21.236;2023-12-20T09:38:08;7.80;;;6.60;;
44452;SDS011;30155;52.164;21.236;2023-12-20T10:31:09;7.60;;;6.80;;
44452;SDS011;30155;52.164;21.236;2023-12-20T11:16:34;6.80;;;5.40;;
44452;SDS011;30155;52.164;21.236;2023-12-20T12:10:39;4.20;;;3.80;;
44452;SDS011;30155;52.164;21.236;2023-12-20T13:10:19;8.70;;;5.80;;
44452;SDS011;30155;52.164;21.236;2023-12-20T13:16:29;6.50;;;5.50;;
44452;SDS011;30155;52.164;21.236;2023-12-20T13:41:31;7.90;;;7.10;;
44452;SDS011;30155;52.164;21.236;2023-12-20T14:08:09;8.90;;;6.70;;
44452;SDS011;30155;52.164;21.236;2023-12-20T14:14:02;9.30;;;7.10;;
44452;SDS011;30155;52.164;21.236;2023-12-20T14:19:21;10.60;;;7.40;;
44452;SDS011;30155;52.164;21.236;2023-12-20T14:24:18;8.60;;;6.70;;
44452;SDS011;30155;52.164;21.236;2023-12-20T14:29:17;8.10;;;6.80;;
44452;SDS011;30155;52.164;21.236;2023-12-20T14:46:56;8.30;;;7.40;;
44452;SDS011;30155;52.164;21.236;2023-12-20T14:51:48;8.00;;;7.20;;
44452;SDS011;30155;52.164;21.236;2023-12-20T14:57:04;8.70;;;6.40;;
44452;SDS011;30155;52.164;21.236;2023-12-20T15:01:56;9.40;;;7.70;;
44452;SDS011;30155;52.164;21.236;2023-12-20T15:06:48;12.90;;;7.20;;
44452;SDS011;30155;52.164;21.236;2023-12-20T15:11:39;8.90;;;5.80;;
44452;SDS011;30155;52.164;21.236;2023-12-20T15:16:31;9.00;;;6.40;;
44452;SDS011;30155;52.164;21.236;2023-12-20T15:21:25;6.90;;;5.50;;
44452;SDS011;30155;52.164;21.236;2023-12-20T15:26:26;12.30;;;7.20;;
44452;SDS011;30155;52.164;21.236;2023-12-20T15:31:29;6.90;;;5.20;;
44452;SDS011;30155;52.164;21.236;2023-12-20T15:36:30;8.90;;;5.90;;
44452;SDS011;30155;52.164;21.236;2023-12-20T15:41:22;9.90;;;5.60;;
44452;SDS011;30155;52.164;21.236;2023-12-20T15:46:14;6.50;;;4.90;;
44452;SDS011;30155;52.164;21.236;2023-12-20T15:51:06;7.80;;;5.50;;
44452;SDS011;30155;52.164;21.236;2023-12-20T15:56:09;8.60;;;6.10;;
44452;SDS011;30155;52.164;21.236;2023-12-20T16:01:04;10.60;;;6.00;;
44452;SDS011;30155;52.164;21.236;2023-12-20T16:05:56;8.20;;;5.50;;
44452;SDS011;30155;52.164;21.236;2023-12-20T16:10:52;8.40;;;5.50;;
44452;SDS011;30155;52.164;21.236;2023-12-20T16:16:52;9.70;;;5.70;;
44452;SDS011;30155;52.164;21.236;2023-12-20T16:21:43;9.80;;;5.40;;
44452;SDS011;30155;52.164;21.236;2023-12-20T16:26:34;8.70;;;5.20;;
44452;SDS011;30155;52.164;21.236;2023-12-20T16:31:26;7.20;;;5.10;;
44452;SDS011;30155;52.164;21.236;2023-12-20T16:36:18;7.40;;;5.00;;
44452;SDS011;30155;52.164;21.236;2023-12-20T16:41:12;10.50;;;6.20;;
44452;SDS011;30155;52.164;21.236;2023-12-20T17:14:14;8.20;;;5.60;;
44452;SDS011;30155;52.164;21.236;2023-12-20T17:20:26;12.30;;;6.10;;
44452;SDS011;30155;52.164;21.236;2023-12-20T18:08:06;7.90;;;5.20;;
44452;SDS011;30155;52.164;21.236;2023-12-20T18:42:04;7.90;;;4.20;;
44452;SDS011;30155;52.164;21.236;2023-12-20T18:48:23;8.90;;;4.20;;
44452;SDS011;30155;52.164;21.236;2023-12-20T19:01:38;12.10;;;4.60;;
44452;SDS011;30155;52.164;21.236;2023-12-20T19:14:05;11.20;;;4.90;;
44452;SDS011;30155;52.164;21.236;2023-12-20T19:40:53;3.20;;;2.30;;
44452;SDS011;30155;52.164;21.236;2023-12-20T19:46:14;1.90;;;1.50;;
44452;SDS011;30155;52.164;21.236;2023-12-20T20:06:16;2.10;;;1.00;;
44452;SDS011;30155;52.164;21.236;2023-12-20T20:26:00;1.50;;;1.20;;
44452;SDS011;30155;52.164;21.236;2023-12-20T20:39:06;1.40;;;1.20;;
44452;SDS011;30155;52.164;21.236;2023-12-20T20:44:59;3.10;;;1.40;;
44452;SDS011;30155;52.164;21.236;2023-12-20T20:50:37;2.00;;;1.70;;
44452;SDS011;30155;52.164;21.236;2023-12-20T21:02:12;1.90;;;1.50;;
44452;SDS011;30155;52.164;21.236;2023-12-20T21:07:57;2.60;;;2.00;;
44452;SDS011;30155;52.164;21.236;2023-12-20T21:13:29;3.90;;;2.20;;
44452;SDS011;30155;52.164;21.236;2023-12-20T21:25:33;3.80;;;2.60;;
44452;SDS011;30155;52.164;21.236;2023-12-20T21:32:17;3.70;;;2.60;;
44452;SDS011;30155;52.164;21.236;2023-12-20T21:44:39;3.00;;;2.50;;
44452;SDS011;30155;52.164;21.236;2023-12-20T22:50:40;4.00;;;2.80;;
44452;SDS011;30155;52.164;21.236;2023-12-20T22:56:35;7.50;;;4.00;;
44452;SDS011;30155;52.164;21.236;2023-12-20T23:21:41;6.60;;;2.80;;
44452;SDS011;30155;52.164;21.236;2023-12-20T23:54:30;8.00;;;3.70;;
